Winkler County Airport
KINK : now visible

Airfield :











YOU CAN JOIN US ON...

 
LOGIN :

Register | Disclaimer

   EN    FR    IT 

 









Legend :    VFR   Marginal VFR   IFR   Intensive IFR   Very Intensive IFR
Visi :
Ceiling :
>= 8 km
>= 3000ft
5 to 8 km
1000 to 3000 ft
1500m to 5 km
500 to 1000 ft
800 to 1500m
200 to 500 ft
< 800m
< 200 ft
Symbols :   Thunderstorms  Fog  Heavy snow  Heavy precipitations  Wind > 20 kt







- Airport Elevation : 2822 ft


KINK - Winkler County

CURRENT METAR :
  • 191353Z AUTO 15012KT 10SM CLR 28/16 A2994 RMK AO2 SLP084 T02780156

EXPIRED METARs :
  • 191253Z AUTO 14013KT 10SM CLR 26/15 A2993 RMK AO2 SLP081 T02610150
  • 191153Z AUTO 14013KT 10SM CLR 26/14 A2992 RMK AO2 SLP076 T02560139 10300 20256 53006

TAF KINK
Valid from the 19 at 12:00 until the 20 at 12:00 UTC


191120Z 1912/2012 15011KT P6SM SKC
FM192200 15015G25KT P6SM FEW250
KZFW FIR / North America



MET'MAP, your aeronautical weather chart ! - Copyright ORBIFLY December 2007 - Disclaimer

ORBIFLY MET'MAP TEAM :

Programming & Development : Alexandra Zaïnal
Concept & Development : Baudouin d'Aumeries
Co-Development & Prog : Marc-Olivier Méhu
Technical & hardware support : Manuel Goepfert

Contact : metmap@orbifly.com




SOURCES & CREDITS :

   NOAA       Earth
Advisory